sensor_id;sensor_type;location;lat;lon;timestamp;pressure;altitude;pressure_sealevel;temperature
76713;BMP280;65640;43.154;25.658;2024-02-23T00:00:37;100406.19;;;9.83
76713;BMP280;65640;43.154;25.658;2024-02-23T00:03:02;100402.53;;;9.79
76713;BMP280;65640;43.154;25.658;2024-02-23T00:05:27;100393.13;;;9.78
76713;BMP280;65640;43.154;25.658;2024-02-23T00:07:53;100390.47;;;9.93
76713;BMP280;65640;43.154;25.658;2024-02-23T00:10:18;100386.31;;;9.92
76713;BMP280;65640;43.154;25.658;2024-02-23T00:12:43;100390.53;;;9.88
76713;BMP280;65640;43.154;25.658;2024-02-23T00:15:10;100389.75;;;9.83
76713;BMP280;65640;43.154;25.658;2024-02-23T00:17:35;100380.59;;;9.65
76713;BMP280;65640;43.154;25.658;2024-02-23T00:20:00;100382.19;;;9.46
76713;BMP280;65640;43.154;25.658;2024-02-23T00:22:26;100385.53;;;9.21
76713;BMP280;65640;43.154;25.658;2024-02-23T00:24:51;100379.00;;;9.08
76713;BMP280;65640;43.154;25.658;2024-02-23T00:27:17;100376.38;;;8.98
76713;BMP280;65640;43.154;25.658;2024-02-23T00:29:42;100376.09;;;8.90
76713;BMP280;65640;43.154;25.658;2024-02-23T00:32:07;100363.25;;;8.83
76713;BMP280;65640;43.154;25.658;2024-02-23T00:34:33;100367.97;;;8.76
76713;BMP280;65640;43.154;25.658;2024-02-23T00:36:58;100363.72;;;8.60
76713;BMP280;65640;43.154;25.658;2024-02-23T00:39:24;100369.75;;;8.65
76713;BMP280;65640;43.154;25.658;2024-02-23T00:41:49;100357.47;;;8.56
76713;BMP280;65640;43.154;25.658;2024-02-23T00:44:15;100354.84;;;8.51
76713;BMP280;65640;43.154;25.658;2024-02-23T00:46:40;100354.84;;;8.56
76713;BMP280;65640;43.154;25.658;2024-02-23T00:49:06;100347.53;;;8.53
76713;BMP280;65640;43.154;25.658;2024-02-23T00:51:31;100352.56;;;8.69
76713;BMP280;65640;43.154;25.658;2024-02-23T00:53:57;100353.84;;;8.72
76713;BMP280;65640;43.154;25.658;2024-02-23T00:56:22;100345.97;;;8.62
76713;BMP280;65640;43.154;25.658;2024-02-23T00:58:48;100344.47;;;8.71
76713;BMP280;65640;43.154;25.658;2024-02-23T01:01:13;100340.50;;;8.58
76713;BMP280;65640;43.154;25.658;2024-02-23T01:03:39;100342.84;;;8.60
76713;BMP280;65640;43.154;25.658;2024-02-23T01:06:04;100346.75;;;8.52
76713;BMP280;65640;43.154;25.658;2024-02-23T01:08:29;100342.31;;;8.53
76713;BMP280;65640;43.154;25.658;2024-02-23T01:10:55;100347.00;;;8.51
76713;BMP280;65640;43.154;25.658;2024-02-23T01:13:20;100333.44;;;8.54
76713;BMP280;65640;43.154;25.658;2024-02-23T01:15:45;100334.25;;;8.59
76713;BMP280;65640;43.154;25.658;2024-02-23T01:18:11;100333.97;;;8.56
76713;BMP280;65640;43.154;25.658;2024-02-23T01:20:36;100330.03;;;8.53
76713;BMP280;65640;43.154;25.658;2024-02-23T01:23:02;100331.09;;;8.52
76713;BMP280;65640;43.154;25.658;2024-02-23T01:25:27;100330.53;;;8.40
76713;BMP280;65640;43.154;25.658;2024-02-23T01:27:53;100323.75;;;8.44
76713;BMP280;65640;43.154;25.658;2024-02-23T01:30:18;100326.34;;;8.39
76713;BMP280;65640;43.154;25.658;2024-02-23T01:32:47;100328.66;;;8.35
76713;BMP280;65640;43.154;25.658;2024-02-23T01:35:13;100335.75;;;8.40
76713;BMP280;65640;43.154;25.658;2024-02-23T01:37:39;100326.09;;;8.45
76713;BMP280;65640;43.154;25.658;2024-02-23T01:40:05;100321.63;;;8.36
76713;BMP280;65640;43.154;25.658;2024-02-23T01:42:31;100325.28;;;8.35
76713;BMP280;65640;43.154;25.658;2024-02-23T01:44:56;100323.66;;;8.24
76713;BMP280;65640;43.154;25.658;2024-02-23T01:47:23;100319.69;;;8.06
76713;BMP280;65640;43.154;25.658;2024-02-23T01:49:49;100326.50;;;8.12
76713;BMP280;65640;43.154;25.658;2024-02-23T01:52:15;100323.88;;;8.07
76713;BMP280;65640;43.154;25.658;2024-02-23T01:54:41;100314.72;;;8.04
76713;BMP280;65640;43.154;25.658;2024-02-23T01:57:06;100308.31;;;8.27
76713;BMP280;65640;43.154;25.658;2024-02-23T01:59:35;100315.09;;;8.28
76713;BMP280;65640;43.154;25.658;2024-02-23T02:02:02;100316.75;;;8.50
76713;BMP280;65640;43.154;25.658;2024-02-23T02:04:28;100315.47;;;8.67
76713;BMP280;65640;43.154;25.658;2024-02-23T02:06:54;100316.22;;;8.63
76713;BMP280;65640;43.154;25.658;2024-02-23T02:09:20;100312.00;;;8.41
76713;BMP280;65640;43.154;25.658;2024-02-23T02:11:49;100319.78;;;8.31
76713;BMP280;65640;43.154;25.658;2024-02-23T02:14:15;100319.53;;;8.28
76713;BMP280;65640;43.154;25.658;2024-02-23T02:16:40;100314.56;;;8.31
76713;BMP280;65640;43.154;25.658;2024-02-23T02:19:06;100319.81;;;8.36
76713;BMP280;65640;43.154;25.658;2024-02-23T02:21:32;100323.72;;;8.39
76713;BMP280;65640;43.154;25.658;2024-02-23T02:23:58;100320.34;;;8.38
76713;BMP280;65640;43.154;25.658;2024-02-23T02:26:23;100324.50;;;8.34
76713;BMP280;65640;43.154;25.658;2024-02-23T02:28:48;100324.44;;;8.24
76713;BMP280;65640;43.154;25.658;2024-02-23T02:31:14;100315.59;;;8.25
76713;BMP280;65640;43.154;25.658;2024-02-23T02:33:42;100322.81;;;8.13
76713;BMP280;65640;43.154;25.658;2024-02-23T02:36:07;100317.41;;;8.20
76713;BMP280;65640;43.154;25.658;2024-02-23T02:38:33;100322.56;;;8.15
76713;BMP280;65640;43.154;25.658;2024-02-23T02:40:59;100322.03;;;8.13
76713;BMP280;65640;43.154;25.658;2024-02-23T02:43:28;100321.78;;;8.09
76713;BMP280;65640;43.154;25.658;2024-02-23T02:45:53;100326.84;;;7.84
76713;BMP280;65640;43.154;25.658;2024-02-23T02:48:19;100322.16;;;7.91
76713;BMP280;65640;43.154;25.658;2024-02-23T02:50:44;100327.91;;;7.93
76713;BMP280;65640;43.154;25.658;2024-02-23T02:53:10;100335.22;;;7.86
76713;BMP280;65640;43.154;25.658;2024-02-23T02:55:42;100338.06;;;7.84
76713;BMP280;65640;43.154;25.658;2024-02-23T02:58:08;100329.25;;;7.95
76713;BMP280;65640;43.154;25.658;2024-02-23T03:00:33;100340.47;;;7.96
76713;BMP280;65640;43.154;25.658;2024-02-23T03:02:59;100340.72;;;7.99
76713;BMP280;65640;43.154;25.658;2024-02-23T03:05:24;100342.31;;;8.00
76713;BMP280;65640;43.154;25.658;2024-02-23T03:07:50;100348.31;;;8.01
76713;BMP280;65640;43.154;25.658;2024-02-23T03:10:15;100335.47;;;7.89
76713;BMP280;65640;43.154;25.658;2024-02-23T03:12:41;100342.00;;;7.87
76713;BMP280;65640;43.154;25.658;2024-02-23T03:15:07;100331.22;;;7.78
76713;BMP280;65640;43.154;25.658;2024-02-23T03:17:33;100329.06;;;7.70
76713;BMP280;65640;43.154;25.658;2024-02-23T03:19:59;100331.41;;;7.66
76713;BMP280;65640;43.154;25.658;2024-02-23T03:22:24;100335.06;;;7.65
76713;BMP280;65640;43.154;25.658;2024-02-23T03:24:49;100317.31;;;7.62
76713;BMP280;65640;43.154;25.658;2024-02-23T03:27:15;100327.69;;;7.57
76713;BMP280;65640;43.154;25.658;2024-02-23T03:29:40;100337.22;;;7.47
76713;BMP280;65640;43.154;25.658;2024-02-23T03:32:06;100332.81;;;7.42
76713;BMP280;65640;43.154;25.658;2024-02-23T03:34:31;100331.91;;;7.32
76713;BMP280;65640;43.154;25.658;2024-02-23T03:36:57;100329.81;;;7.28
76713;BMP280;65640;43.154;25.658;2024-02-23T03:39:24;100338.84;;;7.21
76713;BMP280;65640;43.154;25.658;2024-02-23T03:41:49;100329.47;;;7.20
76713;BMP280;65640;43.154;25.658;2024-02-23T03:44:15;100334.16;;;7.18
76713;BMP280;65640;43.154;25.658;2024-02-23T03:46:40;100338.63;;;7.27
76713;BMP280;65640;43.154;25.658;2024-02-23T03:49:05;100331.72;;;7.11
76713;BMP280;65640;43.154;25.658;2024-02-23T03:51:31;100338.69;;;7.06
76713;BMP280;65640;43.154;25.658;2024-02-23T03:53:57;100344.97;;;7.10
76713;BMP280;65640;43.154;25.658;2024-02-23T03:56:23;100345.59;;;7.17
76713;BMP280;65640;43.154;25.658;2024-02-23T03:58:48;100339.28;;;7.13
76713;BMP280;65640;43.154;25.658;2024-02-23T04:01:14;100341.31;;;7.06
76713;BMP280;65640;43.154;25.658;2024-02-23T04:03:39;100343.50;;;6.92
76713;BMP280;65640;43.154;25.658;2024-02-23T04:06:05;100341.56;;;6.82
76713;BMP280;65640;43.154;25.658;2024-02-23T04:08:32;100333.19;;;6.75
76713;BMP280;65640;43.154;25.658;2024-02-23T04:10:57;100337.28;;;6.71
76713;BMP280;65640;43.154;25.658;2024-02-23T04:13:23;100334.50;;;6.56
76713;BMP280;65640;43.154;25.658;2024-02-23T04:15:48;100328.50;;;6.56
76713;BMP280;65640;43.154;25.658;2024-02-23T04:18:13;100326.19;;;6.54
76713;BMP280;65640;43.154;25.658;2024-02-23T04:20:39;100329.00;;;6.53
76713;BMP280;65640;43.154;25.658;2024-02-23T04:23:04;100330.28;;;6.50
76713;BMP280;65640;43.154;25.658;2024-02-23T04:25:29;100335.28;;;6.57
76713;BMP280;65640;43.154;25.658;2024-02-23T04:27:55;100332.88;;;6.50
76713;BMP280;65640;43.154;25.658;2024-02-23T04:30:20;100334.38;;;6.46
76713;BMP280;65640;43.154;25.658;2024-02-23T04:32:46;100340.06;;;6.43
76713;BMP280;65640;43.154;25.658;2024-02-23T04:35:11;100338.78;;;6.45
76713;BMP280;65640;43.154;25.658;2024-02-23T04:37:36;100348.09;;;6.41
76713;BMP280;65640;43.154;25.658;2024-02-23T04:40:03;100353.59;;;6.45
76713;BMP280;65640;43.154;25.658;2024-02-23T04:42:30;100345.28;;;6.43
76713;BMP280;65640;43.154;25.658;2024-02-23T04:44:56;100347.31;;;6.41
76713;BMP280;65640;43.154;25.658;2024-02-23T04:47:21;100355.03;;;6.36
76713;BMP280;65640;43.154;25.658;2024-02-23T04:49:47;100344.06;;;6.29
76713;BMP280;65640;43.154;25.658;2024-02-23T04:52:12;100358.53;;;6.25
76713;BMP280;65640;43.154;25.658;2024-02-23T04:54:38;100359.88;;;6.27
76713;BMP280;65640;43.154;25.658;2024-02-23T04:57:03;100357.50;;;6.26
76713;BMP280;65640;43.154;25.658;2024-02-23T04:59:28;100360.59;;;6.23
76713;BMP280;65640;43.154;25.658;2024-02-23T05:01:56;100360.09;;;6.42
76713;BMP280;65640;43.154;25.658;2024-02-23T05:04:22;100366.16;;;6.31
76713;BMP280;65640;43.154;25.658;2024-02-23T05:06:47;100360.50;;;6.18
76713;BMP280;65640;43.154;25.658;2024-02-23T05:09:12;100355.50;;;6.33
76713;BMP280;65640;43.154;25.658;2024-02-23T05:11:38;100365.09;;;6.32
76713;BMP280;65640;43.154;25.658;2024-02-23T05:14:04;100370.41;;;6.37
76713;BMP280;65640;43.154;25.658;2024-02-23T05:16:29;100371.09;;;6.33
76713;BMP280;65640;43.154;25.658;2024-02-23T05:18:54;100362.28;;;6.34
76713;BMP280;65640;43.154;25.658;2024-02-23T05:21:20;100367.47;;;6.34
76713;BMP280;65640;43.154;25.658;2024-02-23T05:23:45;100367.16;;;6.47
76713;BMP280;65640;43.154;25.658;2024-02-23T05:26:11;100370.16;;;6.39
76713;BMP280;65640;43.154;25.658;2024-02-23T05:28:37;100378.50;;;6.41
76713;BMP280;65640;43.154;25.658;2024-02-23T05:31:03;100375.81;;;6.36
76713;BMP280;65640;43.154;25.658;2024-02-23T05:33:29;100382.13;;;6.40
76713;BMP280;65640;43.154;25.658;2024-02-23T05:35:55;100380.16;;;6.47
76713;BMP280;65640;43.154;25.658;2024-02-23T05:38:20;100388.28;;;6.50
76713;BMP280;65640;43.154;25.658;2024-02-23T05:40:45;100371.91;;;6.17
76713;BMP280;65640;43.154;25.658;2024-02-23T05:43:11;100378.41;;;5.97
76713;BMP280;65640;43.154;25.658;2024-02-23T05:45:36;100373.31;;;5.86
76713;BMP280;65640;43.154;25.658;2024-02-23T05:48:02;100379.75;;;5.83
76713;BMP280;65640;43.154;25.658;2024-02-23T05:50:28;100378.16;;;5.82
76713;BMP280;65640;43.154;25.658;2024-02-23T05:52:53;100382.94;;;5.90
76713;BMP280;65640;43.154;25.658;2024-02-23T05:55:19;100384.84;;;5.95
76713;BMP280;65640;43.154;25.658;2024-02-23T05:57:44;100388.31;;;6.00
76713;BMP280;65640;43.154;25.658;2024-02-23T06:00:10;100385.25;;;6.03
76713;BMP280;65640;43.154;25.658;2024-02-23T06:02:36;100391.06;;;6.10
76713;BMP280;65640;43.154;25.658;2024-02-23T06:05:01;100393.81;;;6.21
76713;BMP280;65640;43.154;25.658;2024-02-23T06:07:27;100394.50;;;6.33
76713;BMP280;65640;43.154;25.658;2024-02-23T06:09:57;100396.41;;;6.59
76713;BMP280;65640;43.154;25.658;2024-02-23T06:12:22;100402.72;;;6.63
76713;BMP280;65640;43.154;25.658;2024-02-23T06:14:48;100401.69;;;6.86
76713;BMP280;65640;43.154;25.658;2024-02-23T06:17:13;100404.84;;;7.10
76713;BMP280;65640;43.154;25.658;2024-02-23T06:19:39;100406.78;;;7.19
76713;BMP280;65640;43.154;25.658;2024-02-23T06:22:04;100410.09;;;7.15
76713;BMP280;65640;43.154;25.658;2024-02-23T06:24:29;100416.41;;;7.19
76713;BMP280;65640;43.154;25.658;2024-02-23T06:26:55;100418.94;;;7.14
76713;BMP280;65640;43.154;25.658;2024-02-23T06:29:20;100421.47;;;7.09
76713;BMP280;65640;43.154;25.658;2024-02-23T06:31:46;100426.88;;;7.02
76713;BMP280;65640;43.154;25.658;2024-02-23T06:34:15;100415.66;;;7.23
76713;BMP280;65640;43.154;25.658;2024-02-23T06:36:41;100422.69;;;7.50
76713;BMP280;65640;43.154;25.658;2024-02-23T06:39:06;100419.78;;;7.73
76713;BMP280;65640;43.154;25.658;2024-02-23T06:41:32;100423.81;;;7.91
76713;BMP280;65640;43.154;25.658;2024-02-23T06:43:57;100421.03;;;7.71
76713;BMP280;65640;43.154;25.658;2024-02-23T06:46:22;100433.28;;;7.70
76713;BMP280;65640;43.154;25.658;2024-02-23T06:48:48;100425.19;;;7.98
76713;BMP280;65640;43.154;25.658;2024-02-23T06:51:13;100426.69;;;8.26
76713;BMP280;65640;43.154;25.658;2024-02-23T06:53:40;100425.53;;;8.49
76713;BMP280;65640;43.154;25.658;2024-02-23T06:56:06;100424.72;;;8.49
76713;BMP280;65640;43.154;25.658;2024-02-23T06:58:31;100424.72;;;8.49
76713;BMP280;65640;43.154;25.658;2024-02-23T07:00:57;100421.66;;;8.57
76713;BMP280;65640;43.154;25.658;2024-02-23T07:03:22;100426.91;;;8.72
76713;BMP280;65640;43.154;25.658;2024-02-23T07:05:48;100423.63;;;9.02
76713;BMP280;65640;43.154;25.658;2024-02-23T07:08:15;100424.47;;;9.33
76713;BMP280;65640;43.154;25.658;2024-02-23T07:10:40;100421.09;;;9.57
76713;BMP280;65640;43.154;25.658;2024-02-23T07:13:05;100417.97;;;9.71
76713;BMP280;65640;43.154;25.658;2024-02-23T07:15:32;100413.25;;;9.73
76713;BMP280;65640;43.154;25.658;2024-02-23T07:17:58;100416.66;;;9.83
76713;BMP280;65640;43.154;25.658;2024-02-23T07:20:23;100410.34;;;10.04
76713;BMP280;65640;43.154;25.658;2024-02-23T07:22:49;100410.81;;;10.32
76713;BMP280;65640;43.154;25.658;2024-02-23T07:25:18;100406.03;;;10.44
76713;BMP280;65640;43.154;25.658;2024-02-23T07:27:45;100405.53;;;10.47
76713;BMP280;65640;43.154;25.658;2024-02-23T07:30:11;100410.72;;;10.52
76713;BMP280;65640;43.154;25.658;2024-02-23T07:32:37;100412.75;;;10.70
76713;BMP280;65640;43.154;25.658;2024-02-23T07:35:03;100407.91;;;10.98
76713;BMP280;65640;43.154;25.658;2024-02-23T07:37:29;100418.50;;;11.16
76713;BMP280;65640;43.154;25.658;2024-02-23T07:39:54;100411.78;;;11.39
76713;BMP280;65640;43.154;25.658;2024-02-23T07:42:20;100410.66;;;11.50
76713;BMP280;65640;43.154;25.658;2024-02-23T07:44:45;100402.28;;;11.48
76713;BMP280;65640;43.154;25.658;2024-02-23T07:47:11;100399.06;;;11.56
76713;BMP280;65640;43.154;25.658;2024-02-23T07:49:37;100400.88;;;11.85
76713;BMP280;65640;43.154;25.658;2024-02-23T07:52:02;100399.09;;;12.04
76713;BMP280;65640;43.154;25.658;2024-02-23T07:54:28;100404.13;;;12.24
76713;BMP280;65640;43.154;25.658;2024-02-23T07:56:53;100386.16;;;12.36
76713;BMP280;65640;43.154;25.658;2024-02-23T07:59:19;100388.31;;;12.29
76713;BMP280;65640;43.154;25.658;2024-02-23T08:01:44;100386.16;;;12.36
76713;BMP280;65640;43.154;25.658;2024-02-23T08:04:10;100390.56;;;12.60
76713;BMP280;65640;43.154;25.658;2024-02-23T08:06:35;100391.97;;;12.89
76713;BMP280;65640;43.154;25.658;2024-02-23T08:09:01;100384.75;;;13.14
76713;BMP280;65640;43.154;25.658;2024-02-23T08:11:26;100379.44;;;13.32
76713;BMP280;65640;43.154;25.658;2024-02-23T08:13:51;100379.44;;;13.32
76713;BMP280;65640;43.154;25.658;2024-02-23T08:16:17;100387.19;;;13.42
76713;BMP280;65640;43.154;25.658;2024-02-23T08:18:42;100386.63;;;13.73
76713;BMP280;65640;43.154;25.658;2024-02-23T08:21:09;100381.09;;;13.88
76713;BMP280;65640;43.154;25.658;2024-02-23T08:23:35;100390.13;;;13.96
76713;BMP280;65640;43.154;25.658;2024-02-23T08:26:01;100389.44;;;14.17
76713;BMP280;65640;43.154;25.658;2024-02-23T08:28:26;100392.09;;;14.17
76713;BMP280;65640;43.154;25.658;2024-02-23T08:30:52;100385.22;;;14.30
76713;BMP280;65640;43.154;25.658;2024-02-23T08:33:18;100381.84;;;14.52
76713;BMP280;65640;43.154;25.658;2024-02-23T08:35:43;100385.59;;;14.73
76713;BMP280;65640;43.154;25.658;2024-02-23T08:38:10;100386.00;;;14.89
76713;BMP280;65640;43.154;25.658;2024-02-23T08:40:36;100376.56;;;14.96
76713;BMP280;65640;43.154;25.658;2024-02-23T08:43:01;100382.22;;;15.03
76713;BMP280;65640;43.154;25.658;2024-02-23T08:45:26;100383.28;;;15.25
76713;BMP280;65640;43.154;25.658;2024-02-23T08:47:52;100377.09;;;15.38
76713;BMP280;65640;43.154;25.658;2024-02-23T08:50:17;100381.84;;;15.49
76713;BMP280;65640;43.154;25.658;2024-02-23T08:52:43;100387.41;;;15.48
76713;BMP280;65640;43.154;25.658;2024-02-23T08:55:08;100380.28;;;15.57
76713;BMP280;65640;43.154;25.658;2024-02-23T08:57:34;100378.91;;;15.51
76713;BMP280;65640;43.154;25.658;2024-02-23T08:59:59;100380.63;;;15.64
76713;BMP280;65640;43.154;25.658;2024-02-23T09:02:25;100381.00;;;15.88
76713;BMP280;65640;43.154;25.658;2024-02-23T09:04:51;100375.75;;;16.05
76713;BMP280;65640;43.154;25.658;2024-02-23T09:07:16;100382.28;;;16.25
76713;BMP280;65640;43.154;25.658;2024-02-23T09:09:45;100385.88;;;16.29
76713;BMP280;65640;43.154;25.658;2024-02-23T09:12:10;100382.47;;;16.37
76713;BMP280;65640;43.154;25.658;2024-02-23T09:14:36;100375.31;;;16.46
76713;BMP280;65640;43.154;25.658;2024-02-23T09:17:04;100372.03;;;16.67
76713;BMP280;65640;43.154;25.658;2024-02-23T09:19:30;100368.28;;;16.76
76713;BMP280;65640;43.154;25.658;2024-02-23T09:21:55;100366.09;;;16.78
76713;BMP280;65640;43.154;25.658;2024-02-23T09:24:20;100363.44;;;16.95
76713;BMP280;65640;43.154;25.658;2024-02-23T09:26:47;100360.72;;;17.13
76713;BMP280;65640;43.154;25.658;2024-02-23T09:29:12;100359.72;;;17.26
76713;BMP280;65640;43.154;25.658;2024-02-23T09:31:38;100368.91;;;17.28
76713;BMP280;65640;43.154;25.658;2024-02-23T09:34:03;100349.91;;;17.35
76713;BMP280;65640;43.154;25.658;2024-02-23T09:36:29;100361.38;;;17.39
76713;BMP280;65640;43.154;25.658;2024-02-23T09:38:55;100358.22;;;17.45
76713;BMP280;65640;43.154;25.658;2024-02-23T09:41:22;100351.19;;;17.58
76713;BMP280;65640;43.154;25.658;2024-02-23T09:43:48;100359.34;;;17.65
76713;BMP280;65640;43.154;25.658;2024-02-23T09:46:15;100353.25;;;17.73
76713;BMP280;65640;43.154;25.658;2024-02-23T09:48:44;100347.06;;;17.69
76713;BMP280;65640;43.154;25.658;2024-02-23T09:51:12;100345.31;;;17.73
76713;BMP280;65640;43.154;25.658;2024-02-23T09:53:38;100346.75;;;17.91
76713;BMP280;65640;43.154;25.658;2024-02-23T09:56:05;100349.50;;;17.95
76713;BMP280;65640;43.154;25.658;2024-02-23T09:58:34;100345.91;;;18.00
76713;BMP280;65640;43.154;25.658;2024-02-23T10:01:02;100346.13;;;17.86
76713;BMP280;65640;43.154;25.658;2024-02-23T10:03:27;100340.53;;;17.87
76713;BMP280;65640;43.154;25.658;2024-02-23T10:05:57;100337.03;;;17.95
76713;BMP280;65640;43.154;25.658;2024-02-23T10:08:22;100334.91;;;18.10
76713;BMP280;65640;43.154;25.658;2024-02-23T10:10:48;100334.69;;;18.15
76713;BMP280;65640;43.154;25.658;2024-02-23T10:13:24;100330.38;;;18.10
76713;BMP280;65640;43.154;25.658;2024-02-23T10:15:50;100328.97;;;18.13
76713;BMP280;65640;43.154;25.658;2024-02-23T10:18:16;100328.34;;;18.28
76713;BMP280;65640;43.154;25.658;2024-02-23T10:20:42;100333.59;;;18.36
76713;BMP280;65640;43.154;25.658;2024-02-23T10:23:08;100331.88;;;18.32
76713;BMP280;65640;43.154;25.658;2024-02-23T10:25:34;100324.31;;;18.42
76713;BMP280;65640;43.154;25.658;2024-02-23T10:28:01;100324.00;;;18.56
76713;BMP280;65640;43.154;25.658;2024-02-23T10:30:27;100328.66;;;18.71
76713;BMP280;65640;43.154;25.658;2024-02-23T10:32:56;100318.19;;;18.75
76713;BMP280;65640;43.154;25.658;2024-02-23T10:35:22;100318.97;;;18.75
76713;BMP280;65640;43.154;25.658;2024-02-23T10:37:49;100310.34;;;18.78
76713;BMP280;65640;43.154;25.658;2024-02-23T10:40:16;100311.22;;;18.70
76713;BMP280;65640;43.154;25.658;2024-02-23T10:42:46;100316.19;;;18.72
76713;BMP280;65640;43.154;25.658;2024-02-23T10:45:15;100303.03;;;18.75
76713;BMP280;65640;43.154;25.658;2024-02-23T10:47:41;100309.91;;;18.76
76713;BMP280;65640;43.154;25.658;2024-02-23T10:50:08;100303.41;;;18.86
76713;BMP280;65640;43.154;25.658;2024-02-23T10:52:33;100296.22;;;18.86
76713;BMP280;65640;43.154;25.658;2024-02-23T10:55:00;100293.34;;;18.91
76713;BMP280;65640;43.154;25.658;2024-02-23T10:57:27;100292.44;;;19.00
76713;BMP280;65640;43.154;25.658;2024-02-23T10:59:52;100281.63;;;18.92
76713;BMP280;65640;43.154;25.658;2024-02-23T11:02:19;100285.81;;;19.06
76713;BMP280;65640;43.154;25.658;2024-02-23T11:04:49;100282.06;;;19.07
76713;BMP280;65640;43.154;25.658;2024-02-23T11:07:17;100278.94;;;19.17
76713;BMP280;65640;43.154;25.658;2024-02-23T11:09:48;100274.59;;;19.24
76713;BMP280;65640;43.154;25.658;2024-02-23T11:12:22;100274.97;;;19.23
76713;BMP280;65640;43.154;25.658;2024-02-23T11:14:49;100259.91;;;19.27
76713;BMP280;65640;43.154;25.658;2024-02-23T11:17:19;100268.59;;;19.39
76713;BMP280;65640;43.154;25.658;2024-02-23T11:19:50;100265.44;;;19.34
76713;BMP280;65640;43.154;25.658;2024-02-23T11:22:30;100262.72;;;19.46
76713;BMP280;65640;43.154;25.658;2024-02-23T11:25:16;100269.69;;;19.51
76713;BMP280;65640;43.154;25.658;2024-02-23T11:27:42;100262.50;;;19.51
76713;BMP280;65640;43.154;25.658;2024-02-23T11:30:09;100264.59;;;19.58
76713;BMP280;65640;43.154;25.658;2024-02-23T11:32:41;100265.59;;;19.53
76713;BMP280;65640;43.154;25.658;2024-02-23T11:35:08;100263.50;;;19.47
76713;BMP280;65640;43.154;25.658;2024-02-23T11:40:13;100264.88;;;19.68
76713;BMP280;65640;43.154;25.658;2024-02-23T11:42:41;100256.75;;;19.77
76713;BMP280;65640;43.154;25.658;2024-02-23T11:45:07;100258.41;;;19.81
76713;BMP280;65640;43.154;25.658;2024-02-23T11:47:32;100261.28;;;19.76
76713;BMP280;65640;43.154;25.658;2024-02-23T11:49:57;100256.66;;;19.73
76713;BMP280;65640;43.154;25.658;2024-02-23T11:52:23;100262.19;;;19.68
76713;BMP280;65640;43.154;25.658;2024-02-23T11:54:48;100256.56;;;19.70
76713;BMP280;65640;43.154;25.658;2024-02-23T11:57:13;100254.25;;;19.68
76713;BMP280;65640;43.154;25.658;2024-02-23T11:59:40;100252.56;;;19.76
76713;BMP280;65640;43.154;25.658;2024-02-23T12:02:06;100243.75;;;19.87
76713;BMP280;65640;43.154;25.658;2024-02-23T12:04:32;100239.63;;;19.90
76713;BMP280;65640;43.154;25.658;2024-02-23T12:06:58;100234.38;;;20.06
76713;BMP280;65640;43.154;25.658;2024-02-23T12:09:24;100236.19;;;20.02
76713;BMP280;65640;43.154;25.658;2024-02-23T12:11:49;100239.94;;;20.01
76713;BMP280;65640;43.154;25.658;2024-02-23T12:14:15;100240.09;;;19.92
76713;BMP280;65640;43.154;25.658;2024-02-23T12:16:41;100242.16;;;19.99
76713;BMP280;65640;43.154;25.658;2024-02-23T12:19:08;100234.22;;;19.86
76713;BMP280;65640;43.154;25.658;2024-02-23T12:21:34;100233.06;;;20.00
76713;BMP280;65640;43.154;25.658;2024-02-23T12:24:04;100224.41;;;20.03
76713;BMP280;65640;43.154;25.658;2024-02-23T12:26:31;100221.09;;;20.06
76713;BMP280;65640;43.154;25.658;2024-02-23T12:29:00;100221.09;;;20.06
76713;BMP280;65640;43.154;25.658;2024-02-23T12:31:26;100213.59;;;19.96
76713;BMP280;65640;43.154;25.658;2024-02-23T12:33:52;100214.91;;;20.02
76713;BMP280;65640;43.154;25.658;2024-02-23T12:36:17;100213.03;;;20.18
76713;BMP280;65640;43.154;25.658;2024-02-23T12:38:43;100207.47;;;20.23
76713;BMP280;65640;43.154;25.658;2024-02-23T12:41:09;100211.38;;;20.13
76713;BMP280;65640;43.154;25.658;2024-02-23T12:43:34;100212.31;;;20.21
76713;BMP280;65640;43.154;25.658;2024-02-23T12:46:00;100209.59;;;20.02
76713;BMP280;65640;43.154;25.658;2024-02-23T12:48:28;100209.38;;;19.95
76713;BMP280;65640;43.154;25.658;2024-02-23T12:50:53;100215.06;;;20.09
76713;BMP280;65640;43.154;25.658;2024-02-23T12:56:08;100213.50;;;20.08
76713;BMP280;65640;43.154;25.658;2024-02-23T12:58:39;100208.38;;;20.15
76713;BMP280;65640;43.154;25.658;2024-02-23T13:01:04;100213.25;;;20.13
76713;BMP280;65640;43.154;25.658;2024-02-23T13:03:31;100220.38;;;20.09
76713;BMP280;65640;43.154;25.658;2024-02-23T13:05:57;100210.84;;;20.08
76713;BMP280;65640;43.154;25.658;2024-02-23T13:08:23;100212.25;;;20.02
76713;BMP280;65640;43.154;25.658;2024-02-23T13:10:49;100217.91;;;20.00
76713;BMP280;65640;43.154;25.658;2024-02-23T13:13:15;100211.13;;;20.03
76713;BMP280;65640;43.154;25.658;2024-02-23T13:15:41;100216.44;;;20.03
76713;BMP280;65640;43.154;25.658;2024-02-23T13:18:07;100211.03;;;20.15
76713;BMP280;65640;43.154;25.658;2024-02-23T13:20:32;100207.00;;;20.21
76713;BMP280;65640;43.154;25.658;2024-02-23T13:22:58;100204.09;;;20.26
76713;BMP280;65640;43.154;25.658;2024-02-23T13:25:23;100209.84;;;20.28
76713;BMP280;65640;43.154;25.658;2024-02-23T13:27:48;100204.78;;;20.23
76713;BMP280;65640;43.154;25.658;2024-02-23T13:30:14;100205.72;;;20.15
76713;BMP280;65640;43.154;25.658;2024-02-23T13:32:39;100197.72;;;20.15
76713;BMP280;65640;43.154;25.658;2024-02-23T13:35:06;100201.06;;;20.12
76713;BMP280;65640;43.154;25.658;2024-02-23T13:37:34;100202.03;;;20.04
76713;BMP280;65640;43.154;25.658;2024-02-23T13:40:00;100198.19;;;20.01
76713;BMP280;65640;43.154;25.658;2024-02-23T13:42:25;100193.66;;;20.02
76713;BMP280;65640;43.154;25.658;2024-02-23T13:44:51;100192.09;;;20.01
76713;BMP280;65640;43.154;25.658;2024-02-23T13:47:16;100194.41;;;20.02
76713;BMP280;65640;43.154;25.658;2024-02-23T13:49:42;100195.16;;;20.03